Thunder radar more information blitzortung!


Radar de pluja more information rain snow radar


Visita la nostra xarxa de llocs de meteo:

Template documentation
and downloads

And another site



No particular awareness of the weather is required.    There are no Weather-warnings

Pagina Historial Weather Underground text

Diari Resum Agost 16, 2017 Unitats:  Mètric    Imperial   Tant
« Previous Dia
SegĂźent Dia »
Diari Setmana Mensual Anual Personalitzada
  Maxima: Minima: Media:
Temperatura: 31.4 °C 20.6 °C 26.1 °C
Punt de rosada: 19.3 °C 14.6 °C 17.2 °C
Humitat: 80 % 43 % 59 %
Wind Speed: 22.2 km/h 0.0 km/h 7.2 km/h
RĂ fegues de vent: 22.2 km/h - -
Vent:- - East
Pression baro: 1018.8 hPa 1014.8 hPa -
Precipitacions: 0.0 mm    
Historical Graphs
 
 
Dades de taula per Agost 16, 2017
Temps Temperatura Punt de rosada Pression baro Vent Wind Speed RĂ fegues de vent Humitat Rainfall Rate (Hourly)
00:04 23.6 °C 17.3 °C 1016.8 hPa NNE 5.6 km/h 5.6 km/h 68 % 0.0 mm
00:05 22.0 °C 18.0 °C 1017.8 hPa NE 1.6 km/h 3.2 km/h 78 % 0.0 mm
00:09 23.5 °C 17.3 °C 1016.8 hPa NE 5.6 km/h 5.6 km/h 68 % 0.0 mm
00:14 23.5 °C 17.3 °C 1017.8 hPa South 1.9 km/h   68 % 0.0 mm
00:15 22.0 °C 18.0 °C 1017.8 hPa NNE 1.6 km/h 3.2 km/h 78 % 0.0 mm
00:19 23.4 °C 17.2 °C 1017.8 hPa Calm     68 % 0.0 mm
00:24 23.3 °C 17.1 °C 1017.8 hPa NNE 3.7 km/h 3.7 km/h 68 % 0.0 mm
00:25 22.0 °C 18.0 °C 1017.8 hPa NNE 3.2 km/h 4.8 km/h 78 % 0.0 mm
00:29 23.2 °C 16.9 °C 1017.8 hPa NW 1.9 km/h   68 % 0.0 mm
00:34 23.1 °C 16.9 °C 1017.8 hPa NE 1.9 km/h   68 % 0.0 mm
00:35 22.0 °C 18.0 °C 1017.8 hPa NNE 3.2 km/h 4.8 km/h 78 % 0.0 mm
00:39 23.1 °C 16.9 °C 1017.8 hPa NE 1.9 km/h   68 % 0.0 mm
00:44 23.0 °C 17.0 °C 1017.8 hPa NNE 3.9 km/h 3.9 km/h 69 % 0.0 mm
00:45 22.0 °C 18.0 °C 1017.8 hPa NE 3.2 km/h 4.8 km/h 78 % 0.0 mm
00:49 23.0 °C 17.0 °C 1017.8 hPa NNE 4.2 km/h 4.2 km/h 69 % 0.0 mm
00:54 23.0 °C 17.0 °C 1017.8 hPa ENE 4.7 km/h 4.7 km/h 69 % 0.0 mm
00:55 22.0 °C 18.2 °C 1017.8 hPa NNE 4.8 km/h 4.8 km/h 79 % 0.0 mm
00:59 22.9 °C 16.9 °C 1017.8 hPa ENE 5.6 km/h 5.6 km/h 69 % 0.0 mm
01:04 22.8 °C 16.8 °C 1017.8 hPa NE 4.2 km/h 4.2 km/h 69 % 0.0 mm
01:05 22.0 °C 18.2 °C 1018.8 hPa NE 3.2 km/h 4.8 km/h 79 % 0.0 mm
01:09 22.7 °C 16.7 °C 1017.8 hPa Calm     69 % 0.0 mm
01:14 22.6 °C 16.8 °C 1017.8 hPa Calm     70 % 0.0 mm
01:15 22.0 °C 18.2 °C 1017.8 hPa NE 3.2 km/h 4.8 km/h 79 % 0.0 mm
01:19 22.4 °C 16.9 °C 1017.8 hPa NNE 1.9 km/h 1.9 km/h 71 % 0.0 mm
01:24 22.4 °C 16.9 °C 1017.8 hPa NNW 1.9 km/h 1.9 km/h 71 % 0.0 mm
01:25 21.9 °C 18.1 °C 1017.8 hPa NNE 1.6 km/h 4.8 km/h 79 % 0.0 mm
01:29 22.3 °C 16.8 °C 1017.8 hPa NNW 1.9 km/h   71 % 0.0 mm
01:35 21.7 °C 17.9 °C 1017.8 hPa NNE 3.2 km/h 3.2 km/h 79 % 0.0 mm
01:45 21.6 °C 17.8 °C 1017.8 hPa NNE 1.6 km/h 3.2 km/h 79 % 0.0 mm
01:55 21.5 °C 17.7 °C 1017.8 hPa NNE 1.6 km/h 4.8 km/h 79 % 0.0 mm
02:05 21.3 °C 17.5 °C 1017.8 hPa NNE 1.6 km/h 4.8 km/h 79 % 0.0 mm
02:15 21.2 °C 17.4 °C 1017.8 hPa NE 1.6 km/h 3.2 km/h 79 % 0.0 mm
02:25 21.0 °C 17.2 °C 1017.8 hPa NE 1.6 km/h 4.8 km/h 79 % 0.0 mm
02:35 20.9 °C 17.3 °C 1017.8 hPa NNE 1.6 km/h 3.2 km/h 80 % 0.0 mm
02:50 20.7 °C 17.1 °C 1017.8 hPa NNE 1.6 km/h 4.8 km/h 80 % 0.0 mm
03:00 20.6 °C 16.8 °C 1017.8 hPa North 1.6 km/h 3.2 km/h 79 % 0.0 mm
03:10 20.6 °C 17.0 °C 1017.8 hPa Calm   3.2 km/h 80 % 0.0 mm
03:20 20.6 °C 16.8 °C 1017.8 hPa North 3.2 km/h 4.8 km/h 79 % 0.0 mm
03:30 20.6 °C 16.8 °C 1017.8 hPa NE 1.6 km/h 3.2 km/h 79 % 0.0 mm
03:40 20.6 °C 17.0 °C 1017.8 hPa NNE 1.6 km/h 4.8 km/h 80 % 0.0 mm
03:50 20.7 °C 17.1 °C 1016.8 hPa NNE 1.6 km/h 4.8 km/h 80 % 0.0 mm
04:00 21.0 °C 17.0 °C 1017.8 hPa NNE 1.6 km/h 1.6 km/h 78 % 0.0 mm
04:10 21.2 °C 17.2 °C 1017.8 hPa NE 3.2 km/h 3.2 km/h 78 % 0.0 mm
04:20 21.5 °C 17.3 °C 1016.8 hPa NE 4.8 km/h 4.8 km/h 77 % 0.0 mm
04:30 22.0 °C 17.8 °C 1016.8 hPa NE 4.8 km/h 4.8 km/h 77 % 0.0 mm
04:40 22.1 °C 17.7 °C 1016.8 hPa NE 4.8 km/h 6.4 km/h 76 % 0.0 mm
04:50 22.2 °C 17.8 °C 1017.8 hPa NE 4.8 km/h 6.4 km/h 76 % 0.0 mm
05:00 22.7 °C 18.1 °C 1017.8 hPa NE 3.2 km/h 4.8 km/h 75 % 0.0 mm
05:10 23.2 °C 18.1 °C 1017.8 hPa NE 4.8 km/h 6.4 km/h 73 % 0.0 mm
05:20 23.4 °C 18.3 °C 1017.8 hPa NNE 1.6 km/h 4.8 km/h 73 % 0.0 mm
05:30 23.7 °C 18.3 °C 1017.8 hPa NE 3.2 km/h 4.8 km/h 72 % 0.0 mm
05:40 23.8 °C 18.2 °C 1017.8 hPa NNE 1.6 km/h 6.4 km/h 71 % 0.0 mm
05:50 23.8 °C 18.2 °C 1017.8 hPa NE 4.8 km/h 6.4 km/h 71 % 0.0 mm
06:00 24.9 °C 18.8 °C 1017.8 hPa NNE 3.2 km/h 6.4 km/h 69 % 0.0 mm
11:06 25.3 °C 18.2 °C 1017.8 hPa NE 1.9 km/h 2.3 km/h 65 % 0.0 mm
11:07 25.3 °C 18.2 °C 1017.8 hPa NNE 5.6 km/h 5.6 km/h 65 % 0.0 mm
11:12 25.4 °C 18.1 °C 1017.8 hPa ENE 7.4 km/h 7.4 km/h 64 % 0.0 mm
11:17 25.4 °C 18.1 °C 1017.8 hPa ESE 2.6 km/h 2.6 km/h 64 % 0.0 mm
11:22 25.6 °C 18.3 °C 1017.8 hPa ENE 5.0 km/h 5.0 km/h 64 % 0.0 mm
11:27 26.0 °C 18.7 °C 1017.8 hPa SE 5.6 km/h 5.6 km/h 64 % 0.0 mm
11:32 26.3 °C 18.7 °C 1017.8 hPa SW 3.9 km/h 3.9 km/h 63 % 0.0 mm
11:37 26.5 °C 18.6 °C 1017.8 hPa NW 3.7 km/h 3.7 km/h 62 % 0.0 mm
11:42 26.9 °C 19.0 °C 1017.8 hPa West 2.3 km/h   62 % 0.0 mm
11:47 27.0 °C 18.6 °C 1017.8 hPa WSW 1.9 km/h   60 % 0.0 mm
11:52 27.0 °C 18.6 °C 1017.8 hPa NNE 1.9 km/h   60 % 0.0 mm
11:57 27.2 °C 18.5 °C 1017.8 hPa WSW 3.7 km/h 3.7 km/h 59 % 0.0 mm
11:58 27.4 °C 18.9 °C 1017.8 hPa NE 3.2 km/h 3.2 km/h 60 % 0.0 mm
12:03 27.1 °C 18.4 °C 1017.8 hPa NE 7.4 km/h 7.4 km/h 59 % 0.0 mm
12:08 27.1 °C 18.1 °C 1017.8 hPa South 3.7 km/h 3.7 km/h 58 % 0.0 mm
12:13 27.7 °C 18.9 °C 1016.8 hPa North 3.7 km/h 3.7 km/h 59 % 0.0 mm
12:18 27.4 °C 18.4 °C 1016.8 hPa ENE 7.4 km/h 7.4 km/h 58 % 0.0 mm
12:23 27.1 °C 18.1 °C 1016.8 hPa ENE 5.6 km/h 5.6 km/h 58 % 0.0 mm
12:28 27.4 °C 18.4 °C 1017.8 hPa WSW 3.9 km/h 3.9 km/h 58 % 0.0 mm
12:33 27.7 °C 18.7 °C 1017.8 hPa NNE 3.7 km/h 3.7 km/h 58 % 0.0 mm
12:38 27.8 °C 18.8 °C 1017.8 hPa ENE 5.6 km/h 5.6 km/h 58 % 0.0 mm
12:43 27.8 °C 18.8 °C 1017.8 hPa East 7.4 km/h 7.4 km/h 58 % 0.0 mm
12:48 28.0 °C 18.4 °C 1017.8 hPa ESE 5.6 km/h 5.6 km/h 56 % 0.0 mm
12:53 28.2 °C 18.6 °C 1017.8 hPa South 9.3 km/h 9.3 km/h 56 % 0.0 mm
12:58 28.2 °C 18.3 °C 1017.8 hPa ENE 9.3 km/h 9.3 km/h 55 % 0.0 mm
13:03 28.5 °C 18.6 °C 1017.8 hPa ESE 7.4 km/h 7.4 km/h 55 % 0.0 mm
13:08 29.2 °C 18.9 °C 1017.8 hPa SSE 9.3 km/h 9.3 km/h 54 % 0.0 mm
13:13 29.5 °C 18.9 °C 1017.8 hPa NNE 5.6 km/h 5.6 km/h 53 % 0.0 mm
13:18 29.3 °C 19.1 °C 1017.8 hPa NE 3.7 km/h 3.7 km/h 54 % 0.0 mm
13:23 29.5 °C 18.9 °C 1017.8 hPa ESE 6.4 km/h 6.4 km/h 53 % 0.0 mm
13:28 29.5 °C 18.6 °C 1016.8 hPa SSE 7.4 km/h 7.4 km/h 52 % 0.0 mm
13:33 30.2 °C 19.3 °C 1016.8 hPa SE 5.6 km/h 5.6 km/h 52 % 0.0 mm
13:38 29.9 °C 18.3 °C 1016.8 hPa SSE 7.4 km/h 7.4 km/h 50 % 0.0 mm
13:43 29.9 °C 18.7 °C 1016.8 hPa SE 9.3 km/h 9.3 km/h 51 % 0.0 mm
13:48 30.1 °C 18.6 °C 1016.8 hPa WSW 3.7 km/h 3.7 km/h 50 % 0.0 mm
13:53 30.6 °C 19.0 °C 1016.8 hPa ESE 7.4 km/h 7.4 km/h 50 % 0.0 mm
13:58 30.9 °C 19.3 °C 1016.8 hPa ESE 9.5 km/h 9.5 km/h 50 % 0.0 mm
14:03 30.1 °C 17.9 °C 1016.8 hPa NNE 7.4 km/h 7.4 km/h 48 % 0.0 mm
14:08 30.1 °C 18.2 °C 1016.8 hPa ESE 5.6 km/h 5.6 km/h 49 % 0.0 mm
14:13 30.5 °C 18.6 °C 1015.8 hPa ESE 6.9 km/h 6.9 km/h 49 % 0.0 mm
14:18 30.4 °C 18.2 °C 1015.8 hPa NNE 13.0 km/h 13.0 km/h 48 % 0.0 mm
14:23 30.4 °C 18.2 °C 1015.8 hPa North 11.1 km/h 11.1 km/h 48 % 0.0 mm
14:28 30.7 °C 18.1 °C 1015.8 hPa East 8.7 km/h 8.7 km/h 47 % 0.0 mm
14:33 31.0 °C 18.0 °C 1015.8 hPa East 9.3 km/h 9.3 km/h 46 % 0.0 mm
14:38 30.8 °C 17.8 °C 1015.8 hPa ESE 14.8 km/h 14.8 km/h 46 % 0.0 mm
14:43 31.2 °C 17.8 °C 1015.8 hPa SE 9.3 km/h 9.3 km/h 45 % 0.0 mm
14:48 31.2 °C 17.8 °C 1015.8 hPa SE 11.1 km/h 11.1 km/h 45 % 0.0 mm
14:53 30.9 °C 17.6 °C 1015.8 hPa SE 13.7 km/h 13.7 km/h 45 % 0.0 mm
14:58 31.0 °C 17.7 °C 1015.8 hPa ENE 7.4 km/h 7.4 km/h 45 % 0.0 mm
15:03 30.7 °C 17.4 °C 1015.8 hPa NNE 5.6 km/h 5.6 km/h 45 % 0.0 mm
15:08 31.0 °C 17.3 °C 1015.8 hPa ESE 9.3 km/h 9.3 km/h 44 % 0.0 mm
15:13 31.0 °C 17.7 °C 1015.8 hPa South 7.4 km/h 7.4 km/h 45 % 0.0 mm
15:18 31.0 °C 17.3 °C 1015.8 hPa SSE 9.3 km/h 9.3 km/h 44 % 0.0 mm
15:23 30.9 °C 17.6 °C 1015.8 hPa East 13.0 km/h 13.0 km/h 45 % 0.0 mm
15:28 31.2 °C 17.5 °C 1016.8 hPa East 11.1 km/h 11.1 km/h 44 % 0.0 mm
15:33 31.1 °C 17.1 °C 1016.8 hPa SSE 14.8 km/h 14.8 km/h 43 % 0.0 mm
15:35 31.3 °C 17.2 °C 1016.8 hPa SSW 13.0 km/h 13.0 km/h 43 % 0.0 mm
15:40 31.3 °C 17.2 °C 1016.8 hPa East 14.8 km/h 14.8 km/h 43 % 0.0 mm
15:45 31.4 °C 17.7 °C 1015.8 hPa ESE 9.3 km/h 9.3 km/h 44 % 0.0 mm
15:50 31.2 °C 17.1 °C 1015.8 hPa SE 13.0 km/h 13.0 km/h 43 % 0.0 mm
15:55 31.2 °C 17.1 °C 1015.8 hPa ESE 14.8 km/h 14.8 km/h 43 % 0.0 mm
16:05 31.1 °C 17.1 °C 1015.8 hPa ENE 13.0 km/h 13.0 km/h 43 % 0.0 mm
16:10 31.0 °C 17.3 °C 1015.8 hPa ENE 9.3 km/h 9.3 km/h 44 % 0.0 mm
16:15 31.0 °C 17.3 °C 1015.8 hPa East 9.3 km/h 9.3 km/h 44 % 0.0 mm
16:20 31.2 °C 17.5 °C 1015.8 hPa ESE 11.1 km/h 11.1 km/h 44 % 0.0 mm
16:25 30.9 °C 17.2 °C 1015.8 hPa ESE 18.5 km/h 18.5 km/h 44 % 0.0 mm
16:30 30.9 °C 17.6 °C 1015.8 hPa ENE 11.1 km/h 11.1 km/h 45 % 0.0 mm
16:35 30.9 °C 17.6 °C 1015.8 hPa SE 14.8 km/h 14.8 km/h 45 % 0.0 mm
16:40 30.8 °C 17.5 °C 1015.8 hPa ESE 20.4 km/h 20.4 km/h 45 % 0.0 mm
16:45 30.6 °C 17.3 °C 1015.8 hPa ESE 17.5 km/h 17.5 km/h 45 % 0.0 mm
16:50 30.6 °C 17.3 °C 1015.8 hPa East 16.7 km/h 16.7 km/h 45 % 0.0 mm
16:55 30.7 °C 17.4 °C 1015.8 hPa ESE 13.0 km/h 13.0 km/h 45 % 0.0 mm
17:00 30.5 °C 17.2 °C 1015.8 hPa ENE 16.7 km/h 16.7 km/h 45 % 0.0 mm
17:05 30.3 °C 17.1 °C 1015.8 hPa ESE 16.7 km/h 16.7 km/h 45 % 0.0 mm
17:10 30.0 °C 17.1 °C 1015.8 hPa ESE 13.0 km/h 13.0 km/h 46 % 0.0 mm
17:15 30.1 °C 17.2 °C 1015.8 hPa East 9.3 km/h 9.3 km/h 46 % 0.0 mm
17:20 30.3 °C 17.4 °C 1015.8 hPa East 16.7 km/h 16.7 km/h 46 % 0.0 mm
17:25 29.9 °C 17.0 °C 1015.8 hPa East 18.5 km/h 18.5 km/h 46 % 0.0 mm
17:30 29.7 °C 17.2 °C 1015.8 hPa ENE 16.7 km/h 16.7 km/h 47 % 0.0 mm
17:35 29.6 °C 17.1 °C 1015.8 hPa ESE 16.7 km/h 16.7 km/h 47 % 0.0 mm
17:40 29.4 °C 16.9 °C 1015.8 hPa East 18.5 km/h 18.5 km/h 47 % 0.0 mm
17:45 29.2 °C 17.1 °C 1015.8 hPa ESE 14.8 km/h 14.8 km/h 48 % 0.0 mm
17:50 29.2 °C 17.1 °C 1015.8 hPa ESE 15.8 km/h 15.8 km/h 48 % 0.0 mm
17:55 29.2 °C 17.1 °C 1015.8 hPa East 16.7 km/h 16.7 km/h 48 % 0.0 mm
18:00 29.0 °C 16.9 °C 1015.8 hPa SE 16.7 km/h 16.7 km/h 48 % 0.0 mm
18:05 28.9 °C 17.1 °C 1015.8 hPa ESE 13.0 km/h 13.0 km/h 49 % 0.0 mm
18:10 28.8 °C 17.0 °C 1015.8 hPa NE 13.0 km/h 13.0 km/h 49 % 0.0 mm
18:15 28.6 °C 16.8 °C 1014.8 hPa ENE 18.5 km/h 18.5 km/h 49 % 0.0 mm
18:20 28.5 °C 17.1 °C 1014.8 hPa ESE 17.5 km/h 17.5 km/h 50 % 0.0 mm
18:25 28.4 °C 17.0 °C 1014.8 hPa ESE 15.6 km/h 15.6 km/h 50 % 0.0 mm
18:30 28.1 °C 16.7 °C 1014.8 hPa East 22.2 km/h 22.2 km/h 50 % 0.0 mm
18:35 28.0 °C 16.6 °C 1014.8 hPa ESE 14.8 km/h 14.8 km/h 50 % 0.0 mm
18:40 27.8 °C 16.4 °C 1014.8 hPa ESE 18.5 km/h 18.5 km/h 50 % 0.0 mm
18:45 27.8 °C 16.4 °C 1015.8 hPa SE 16.1 km/h 16.1 km/h 50 % 0.0 mm
18:50 27.8 °C 16.4 °C 1015.8 hPa ESE 13.0 km/h 13.0 km/h 50 % 0.0 mm
18:55 27.5 °C 16.2 °C 1015.8 hPa ESE 13.0 km/h 13.0 km/h 50 % 0.0 mm
19:00 27.4 °C 16.1 °C 1015.8 hPa ENE 14.8 km/h 14.8 km/h 50 % 0.0 mm
19:05 27.2 °C 15.9 °C 1015.8 hPa SE 11.1 km/h 11.1 km/h 50 % 0.0 mm
19:10 27.1 °C 16.1 °C 1015.8 hPa ESE 13.0 km/h 13.0 km/h 51 % 0.0 mm
19:15 27.1 °C 16.1 °C 1015.8 hPa East 11.1 km/h 11.1 km/h 51 % 0.0 mm
19:20 26.7 °C 16.3 °C 1015.8 hPa ESE 20.4 km/h 20.4 km/h 53 % 0.0 mm
19:25 26.7 °C 16.3 °C 1015.8 hPa ESE 9.3 km/h 9.3 km/h 53 % 0.0 mm
19:30 26.5 °C 16.2 °C 1015.8 hPa ENE 13.0 km/h 13.0 km/h 53 % 0.0 mm
19:35 26.6 °C 16.2 °C 1015.8 hPa SSE 9.3 km/h 9.3 km/h 53 % 0.0 mm
19:40 26.4 °C 16.3 °C 1015.8 hPa ESE 10.0 km/h 10.0 km/h 54 % 0.0 mm
19:45 26.4 °C 16.3 °C 1015.8 hPa North 7.4 km/h 7.4 km/h 54 % 0.0 mm
19:50 26.3 °C 16.2 °C 1015.8 hPa ESE 9.3 km/h 9.3 km/h 54 % 0.0 mm
19:55 26.2 °C 16.2 °C 1015.8 hPa ENE 9.3 km/h 9.3 km/h 54 % 0.0 mm
20:00 26.2 °C 16.2 °C 1015.8 hPa NE 7.4 km/h 7.4 km/h 54 % 0.0 mm
20:05 26.1 °C 16.1 °C 1015.8 hPa NE 9.3 km/h 9.3 km/h 54 % 0.0 mm
20:10 26.0 °C 16.3 °C 1015.8 hPa East 11.4 km/h 11.4 km/h 55 % 0.0 mm
20:15 25.9 °C 16.2 °C 1015.8 hPa ENE 9.3 km/h 9.3 km/h 55 % 0.0 mm
20:20 25.9 °C 16.2 °C 1015.8 hPa ENE 7.4 km/h 7.4 km/h 55 % 0.0 mm
20:25 25.7 °C 16.0 °C 1015.8 hPa ESE 9.5 km/h 9.5 km/h 55 % 0.0 mm
20:30 25.6 °C 16.2 °C 1015.8 hPa ESE 7.4 km/h 7.4 km/h 56 % 0.0 mm
20:35 25.6 °C 16.2 °C 1015.8 hPa NE 9.3 km/h 9.3 km/h 56 % 0.0 mm
20:40 25.4 °C 16.3 °C 1015.8 hPa ESE 9.3 km/h 9.3 km/h 57 % 0.0 mm
20:45 25.2 °C 16.1 °C 1016.8 hPa East 7.9 km/h 7.9 km/h 57 % 0.0 mm
20:50 25.1 °C 16.0 °C 1016.8 hPa ENE 11.1 km/h 11.1 km/h 57 % 0.0 mm
20:55 25.0 °C 15.9 °C 1016.8 hPa East 9.3 km/h 9.3 km/h 57 % 0.0 mm
21:00 24.9 °C 16.1 °C 1016.8 hPa ESE 11.1 km/h 11.1 km/h 58 % 0.0 mm
21:05 24.8 °C 16.0 °C 1016.8 hPa ESE 9.5 km/h 9.5 km/h 58 % 0.0 mm
21:10 24.7 °C 16.2 °C 1016.8 hPa East 9.3 km/h 9.3 km/h 59 % 0.0 mm
21:15 24.6 °C 16.3 °C 1016.8 hPa NNE 7.4 km/h 7.4 km/h 60 % 0.0 mm
21:20 24.5 °C 16.2 °C 1016.8 hPa ESE 6.4 km/h 6.4 km/h 60 % 0.0 mm
21:25 24.3 °C 16.1 °C 1016.8 hPa ENE 5.6 km/h 5.6 km/h 60 % 0.0 mm
21:30 24.3 °C 16.3 °C 1018.8 hPa ESE 5.6 km/h 5.6 km/h 61 % 0.0 mm
21:31 24.3 °C 16.3 °C 1018.8 hPa SE 5.6 km/h 5.6 km/h 61 % 0.0 mm
21:36 24.2 °C 16.2 °C 1018.8 hPa ESE 9.0 km/h 9.0 km/h 61 % 0.0 mm
21:41 24.2 °C 16.4 °C 1018.8 hPa East 3.9 km/h 3.9 km/h 62 % 0.0 mm
21:46 24.1 °C 16.4 °C 1017.8 hPa NNE 5.6 km/h 5.6 km/h 62 % 0.0 mm
21:51 24.1 °C 16.4 °C 1017.8 hPa ENE 5.6 km/h 5.6 km/h 62 % 0.0 mm
21:56 24.0 °C 16.0 °C 1017.8 hPa East 5.6 km/h 5.6 km/h 61 % 0.0 mm
22:01 24.0 °C 16.3 °C 1016.8 hPa ESE 3.7 km/h 3.7 km/h 62 % 0.0 mm
22:06 24.0 °C 16.0 °C 1016.8 hPa ESE 5.6 km/h 5.6 km/h 61 % 0.0 mm
22:11 23.9 °C 16.2 °C 1016.8 hPa NE 3.7 km/h 3.7 km/h 62 % 0.0 mm
22:16 23.8 °C 16.3 °C 1017.8 hPa Calm     63 % 0.0 mm
22:21 23.8 °C 16.3 °C 1017.8 hPa East 3.7 km/h 3.7 km/h 63 % 0.0 mm
22:26 23.7 °C 16.2 °C 1017.8 hPa ESE 3.7 km/h 3.7 km/h 63 % 0.0 mm
22:31 23.6 °C 16.2 °C 1017.8 hPa ENE 1.9 km/h 1.9 km/h 63 % 0.0 mm
22:32 23.6 °C 16.2 °C 1017.8 hPa NE 3.7 km/h 3.7 km/h 63 % 0.0 mm
22:37 23.6 °C 16.2 °C 1017.8 hPa NNE 3.7 km/h 3.7 km/h 63 % 0.0 mm
22:42 23.6 °C 15.9 °C 1017.8 hPa NE 1.9 km/h   62 % 0.0 mm
22:47 23.5 °C 15.8 °C 1017.8 hPa Calm     62 % 0.0 mm
22:52 23.5 °C 15.8 °C 1017.8 hPa NE 1.9 km/h   62 % 0.0 mm
22:57 23.5 °C 15.6 °C 1017.8 hPa ENE 3.7 km/h 3.7 km/h 61 % 0.0 mm
23:02 23.4 °C 15.4 °C 1017.8 hPa Calm     61 % 0.0 mm
23:07 23.3 °C 15.3 °C 1017.8 hPa Calm     61 % 0.0 mm
23:12 23.3 °C 15.3 °C 1017.8 hPa Calm     61 % 0.0 mm
23:17 23.2 °C 15.0 °C 1017.8 hPa Calm     60 % 0.0 mm
23:22 23.1 °C 14.9 °C 1017.8 hPa NNW 1.9 km/h   60 % 0.0 mm
23:27 23.0 °C 14.8 °C 1017.8 hPa Calm     60 % 0.0 mm
23:32 23.0 °C 14.8 °C 1017.8 hPa NNE 1.9 km/h   60 % 0.0 mm
23:37 23.0 °C 14.8 °C 1017.8 hPa NNE 1.9 km/h   60 % 0.0 mm
23:42 22.9 °C 14.7 °C 1017.8 hPa NW 1.9 km/h   60 % 0.0 mm
23:47 22.9 °C 14.7 °C 1017.8 hPa West 1.9 km/h 1.9 km/h 60 % 0.0 mm
23:52 22.9 °C 14.7 °C 1017.8 hPa Calm     60 % 0.0 mm
23:57 22.8 °C 14.6 °C 1017.8 hPa NNW 1.9 km/h   60 % 0.0 mm
Meteo Sesrovires
Elogis d' Weather Underground - 3.5 mb

Guio original per  Jim McMurry - jmcmurry@mwt.net Adaptat per a la plantilla per  Wim van der Kuil - Leuven-Template.eu

Trobareu la nostra informacio del temps tambe a:

Weather Underground

AWEKAS